sensor_id;sensor_type;location;lat;lon;timestamp;P1;durP1;ratioP1;P2;durP2;ratioP2
43662;SDS011;74813;56.104;40.358;2024-03-17T00:01:38;31.88;;;4.97;;
43662;SDS011;74813;56.104;40.358;2024-03-17T00:04:11;26.83;;;4.88;;
43662;SDS011;74813;56.104;40.358;2024-03-17T00:06:43;39.40;;;4.68;;
43662;SDS011;74813;56.104;40.358;2024-03-17T00:09:15;26.15;;;4.65;;
43662;SDS011;74813;56.104;40.358;2024-03-17T00:11:47;33.45;;;4.55;;
43662;SDS011;74813;56.104;40.358;2024-03-17T00:14:20;37.67;;;4.78;;
43662;SDS011;74813;56.104;40.358;2024-03-17T00:16:52;32.72;;;4.47;;
43662;SDS011;74813;56.104;40.358;2024-03-17T00:19:24;30.13;;;5.80;;
43662;SDS011;74813;56.104;40.358;2024-03-17T00:21:57;23.10;;;3.45;;
43662;SDS011;74813;56.104;40.358;2024-03-17T00:24:29;25.05;;;4.28;;
43662;SDS011;74813;56.104;40.358;2024-03-17T00:27:01;45.22;;;5.65;;
43662;SDS011;74813;56.104;40.358;2024-03-17T00:29:33;40.33;;;4.95;;
43662;SDS011;74813;56.104;40.358;2024-03-17T00:32:06;50.15;;;6.30;;
43662;SDS011;74813;56.104;40.358;2024-03-17T00:34:38;36.65;;;5.35;;
43662;SDS011;74813;56.104;40.358;2024-03-17T00:37:11;43.05;;;5.22;;
43662;SDS011;74813;56.104;40.358;2024-03-17T00:39:43;37.28;;;6.07;;
43662;SDS011;74813;56.104;40.358;2024-03-17T00:42:15;44.50;;;6.10;;
43662;SDS011;74813;56.104;40.358;2024-03-17T00:44:48;34.35;;;4.40;;
43662;SDS011;74813;56.104;40.358;2024-03-17T00:47:20;41.47;;;5.05;;
43662;SDS011;74813;56.104;40.358;2024-03-17T00:49:52;50.90;;;7.90;;
43662;SDS011;74813;56.104;40.358;2024-03-17T00:52:25;45.65;;;5.45;;
43662;SDS011;74813;56.104;40.358;2024-03-17T00:54:58;41.88;;;6.20;;
43662;SDS011;74813;56.104;40.358;2024-03-17T00:57:31;36.63;;;5.25;;
43662;SDS011;74813;56.104;40.358;2024-03-17T01:00:04;43.83;;;7.80;;
43662;SDS011;74813;56.104;40.358;2024-03-17T01:02:37;29.55;;;4.53;;
43662;SDS011;74813;56.104;40.358;2024-03-17T01:05:09;41.13;;;5.75;;
43662;SDS011;74813;56.104;40.358;2024-03-17T01:07:42;40.85;;;5.25;;
43662;SDS011;74813;56.104;40.358;2024-03-17T01:10:14;50.58;;;6.05;;
43662;SDS011;74813;56.104;40.358;2024-03-17T01:12:46;58.17;;;6.28;;
43662;SDS011;74813;56.104;40.358;2024-03-17T01:15:19;37.50;;;6.70;;
43662;SDS011;74813;56.104;40.358;2024-03-17T01:17:51;53.00;;;5.82;;
43662;SDS011;74813;56.104;40.358;2024-03-17T01:20:23;39.38;;;5.28;;
43662;SDS011;74813;56.104;40.358;2024-03-17T01:22:56;42.00;;;5.60;;
43662;SDS011;74813;56.104;40.358;2024-03-17T01:25:28;37.80;;;4.47;;
43662;SDS011;74813;56.104;40.358;2024-03-17T01:28:00;50.65;;;6.75;;
43662;SDS011;74813;56.104;40.358;2024-03-17T01:30:33;46.33;;;6.28;;
43662;SDS011;74813;56.104;40.358;2024-03-17T01:33:05;39.83;;;5.28;;
43662;SDS011;74813;56.104;40.358;2024-03-17T01:35:37;58.20;;;5.80;;
43662;SDS011;74813;56.104;40.358;2024-03-17T01:38:10;47.47;;;6.35;;
43662;SDS011;74813;56.104;40.358;2024-03-17T01:40:42;46.83;;;5.20;;
43662;SDS011;74813;56.104;40.358;2024-03-17T01:43:14;51.72;;;6.28;;
43662;SDS011;74813;56.104;40.358;2024-03-17T01:45:47;50.13;;;6.68;;
43662;SDS011;74813;56.104;40.358;2024-03-17T01:48:19;61.75;;;8.48;;
43662;SDS011;74813;56.104;40.358;2024-03-17T01:50:52;47.20;;;6.65;;
43662;SDS011;74813;56.104;40.358;2024-03-17T01:53:27;42.90;;;4.60;;
43662;SDS011;74813;56.104;40.358;2024-03-17T01:55:59;52.90;;;7.35;;
43662;SDS011;74813;56.104;40.358;2024-03-17T01:58:32;52.10;;;7.93;;
43662;SDS011;74813;56.104;40.358;2024-03-17T02:01:05;57.08;;;7.65;;
43662;SDS011;74813;56.104;40.358;2024-03-17T02:03:37;50.58;;;6.18;;
43662;SDS011;74813;56.104;40.358;2024-03-17T02:06:09;55.60;;;5.70;;
43662;SDS011;74813;56.104;40.358;2024-03-17T02:08:52;67.60;;;8.60;;
43662;SDS011;74813;56.104;40.358;2024-03-17T02:14:02;54.63;;;7.00;;
43662;SDS011;74813;56.104;40.358;2024-03-17T02:16:34;55.40;;;9.07;;
43662;SDS011;74813;56.104;40.358;2024-03-17T02:19:07;60.72;;;8.15;;
43662;SDS011;74813;56.104;40.358;2024-03-17T02:21:39;64.10;;;9.82;;
43662;SDS011;74813;56.104;40.358;2024-03-17T02:24:11;49.53;;;6.97;;
43662;SDS011;74813;56.104;40.358;2024-03-17T02:26:43;51.95;;;7.47;;
43662;SDS011;74813;56.104;40.358;2024-03-17T02:29:16;57.13;;;9.00;;
43662;SDS011;74813;56.104;40.358;2024-03-17T02:31:48;58.28;;;9.82;;
43662;SDS011;74813;56.104;40.358;2024-03-17T02:34:20;53.17;;;7.07;;
43662;SDS011;74813;56.104;40.358;2024-03-17T02:36:53;75.05;;;8.75;;
43662;SDS011;74813;56.104;40.358;2024-03-17T02:39:25;66.25;;;7.88;;
43662;SDS011;74813;56.104;40.358;2024-03-17T02:41:57;76.63;;;7.35;;
43662;SDS011;74813;56.104;40.358;2024-03-17T02:44:30;72.95;;;9.25;;
43662;SDS011;74813;56.104;40.358;2024-03-17T02:47:04;77.38;;;8.70;;
43662;SDS011;74813;56.104;40.358;2024-03-17T02:49:37;77.85;;;12.18;;
43662;SDS011;74813;56.104;40.358;2024-03-17T02:52:10;69.75;;;9.38;;
43662;SDS011;74813;56.104;40.358;2024-03-17T02:54:43;66.82;;;11.55;;
43662;SDS011;74813;56.104;40.358;2024-03-17T02:57:15;64.78;;;8.95;;
43662;SDS011;74813;56.104;40.358;2024-03-17T02:59:47;64.40;;;8.00;;
43662;SDS011;74813;56.104;40.358;2024-03-17T03:02:19;66.75;;;8.43;;
43662;SDS011;74813;56.104;40.358;2024-03-17T03:04:52;82.35;;;10.15;;
43662;SDS011;74813;56.104;40.358;2024-03-17T03:07:24;67.72;;;11.45;;
43662;SDS011;74813;56.104;40.358;2024-03-17T03:09:56;66.38;;;8.50;;
43662;SDS011;74813;56.104;40.358;2024-03-17T03:12:29;64.15;;;6.80;;
43662;SDS011;74813;56.104;40.358;2024-03-17T03:15:01;74.93;;;13.00;;
43662;SDS011;74813;56.104;40.358;2024-03-17T03:17:33;79.53;;;9.18;;
43662;SDS011;74813;56.104;40.358;2024-03-17T03:20:06;65.13;;;7.95;;
43662;SDS011;74813;56.104;40.358;2024-03-17T03:22:39;86.30;;;9.30;;
43662;SDS011;74813;56.104;40.358;2024-03-17T03:25:12;95.72;;;14.10;;
43662;SDS011;74813;56.104;40.358;2024-03-17T03:27:44;67.20;;;8.75;;
43662;SDS011;74813;56.104;40.358;2024-03-17T03:30:16;75.90;;;8.57;;
43662;SDS011;74813;56.104;40.358;2024-03-17T03:32:49;73.18;;;9.65;;
43662;SDS011;74813;56.104;40.358;2024-03-17T03:35:21;73.25;;;8.40;;
43662;SDS011;74813;56.104;40.358;2024-03-17T03:37:53;86.78;;;9.07;;
43662;SDS011;74813;56.104;40.358;2024-03-17T03:40:26;77.13;;;9.95;;
43662;SDS011;74813;56.104;40.358;2024-03-17T03:42:58;77.15;;;11.57;;
43662;SDS011;74813;56.104;40.358;2024-03-17T03:45:31;90.97;;;11.15;;
43662;SDS011;74813;56.104;40.358;2024-03-17T03:48:03;70.00;;;10.50;;
43662;SDS011;74813;56.104;40.358;2024-03-17T03:50:39;77.50;;;7.93;;
43662;SDS011;74813;56.104;40.358;2024-03-17T03:53:12;80.03;;;7.80;;
43662;SDS011;74813;56.104;40.358;2024-03-17T03:55:44;85.70;;;9.73;;
43662;SDS011;74813;56.104;40.358;2024-03-17T03:58:17;79.90;;;10.88;;
43662;SDS011;74813;56.104;40.358;2024-03-17T04:00:49;74.13;;;9.15;;
43662;SDS011;74813;56.104;40.358;2024-03-17T04:03:21;78.00;;;9.75;;
43662;SDS011;74813;56.104;40.358;2024-03-17T04:06:00;79.93;;;8.90;;
43662;SDS011;74813;56.104;40.358;2024-03-17T04:08:37;75.82;;;10.05;;
43662;SDS011;74813;56.104;40.358;2024-03-17T04:11:10;79.00;;;10.30;;
43662;SDS011;74813;56.104;40.358;2024-03-17T04:13:42;87.05;;;11.88;;
43662;SDS011;74813;56.104;40.358;2024-03-17T04:16:15;69.82;;;8.35;;
43662;SDS011;74813;56.104;40.358;2024-03-17T04:18:47;66.28;;;9.77;;
43662;SDS011;74813;56.104;40.358;2024-03-17T04:21:19;81.70;;;8.93;;
43662;SDS011;74813;56.104;40.358;2024-03-17T04:23:51;62.30;;;8.70;;
43662;SDS011;74813;56.104;40.358;2024-03-17T04:26:24;87.32;;;11.55;;
43662;SDS011;74813;56.104;40.358;2024-03-17T04:28:56;59.95;;;8.45;;
43662;SDS011;74813;56.104;40.358;2024-03-17T04:31:29;56.35;;;9.32;;
43662;SDS011;74813;56.104;40.358;2024-03-17T04:34:01;83.28;;;10.75;;
43662;SDS011;74813;56.104;40.358;2024-03-17T04:36:33;63.22;;;8.27;;
43662;SDS011;74813;56.104;40.358;2024-03-17T04:39:06;83.07;;;10.15;;
43662;SDS011;74813;56.104;40.358;2024-03-17T04:41:38;90.88;;;11.75;;
43662;SDS011;74813;56.104;40.358;2024-03-17T04:44:10;65.35;;;9.13;;
43662;SDS011;74813;56.104;40.358;2024-03-17T04:46:43;64.95;;;9.85;;
43662;SDS011;74813;56.104;40.358;2024-03-17T04:49:16;72.30;;;11.15;;
43662;SDS011;74813;56.104;40.358;2024-03-17T04:51:48;78.07;;;9.68;;
43662;SDS011;74813;56.104;40.358;2024-03-17T04:54:20;79.45;;;11.63;;
43662;SDS011;74813;56.104;40.358;2024-03-17T04:56:52;86.55;;;12.48;;
43662;SDS011;74813;56.104;40.358;2024-03-17T04:59:25;93.15;;;13.55;;
43662;SDS011;74813;56.104;40.358;2024-03-17T05:01:57;69.57;;;9.38;;
43662;SDS011;74813;56.104;40.358;2024-03-17T05:04:29;57.33;;;8.40;;
43662;SDS011;74813;56.104;40.358;2024-03-17T05:07:02;61.63;;;8.70;;
43662;SDS011;74813;56.104;40.358;2024-03-17T05:09:34;79.88;;;11.27;;
43662;SDS011;74813;56.104;40.358;2024-03-17T05:12:07;70.50;;;10.27;;
43662;SDS011;74813;56.104;40.358;2024-03-17T05:14:39;107.93;;;16.60;;
43662;SDS011;74813;56.104;40.358;2024-03-17T05:17:11;77.95;;;9.60;;
43662;SDS011;74813;56.104;40.358;2024-03-17T05:19:43;104.85;;;16.95;;
43662;SDS011;74813;56.104;40.358;2024-03-17T05:22:16;97.88;;;15.20;;
43662;SDS011;74813;56.104;40.358;2024-03-17T05:24:48;102.05;;;14.70;;
43662;SDS011;74813;56.104;40.358;2024-03-17T05:27:20;85.07;;;11.80;;
43662;SDS011;74813;56.104;40.358;2024-03-17T05:29:53;120.05;;;19.95;;
43662;SDS011;74813;56.104;40.358;2024-03-17T05:32:25;70.85;;;11.02;;
43662;SDS011;74813;56.104;40.358;2024-03-17T05:34:57;71.35;;;11.57;;
43662;SDS011;74813;56.104;40.358;2024-03-17T05:37:29;78.85;;;12.02;;
43662;SDS011;74813;56.104;40.358;2024-03-17T05:40:02;107.47;;;18.58;;
43662;SDS011;74813;56.104;40.358;2024-03-17T05:42:35;75.57;;;11.60;;
43662;SDS011;74813;56.104;40.358;2024-03-17T05:45:07;67.07;;;10.98;;
43662;SDS011;74813;56.104;40.358;2024-03-17T05:47:39;72.90;;;10.77;;
43662;SDS011;74813;56.104;40.358;2024-03-17T05:50:12;71.57;;;11.65;;
43662;SDS011;74813;56.104;40.358;2024-03-17T05:52:44;72.15;;;13.30;;
43662;SDS011;74813;56.104;40.358;2024-03-17T05:55:16;80.05;;;10.63;;
43662;SDS011;74813;56.104;40.358;2024-03-17T05:57:50;77.20;;;11.65;;
43662;SDS011;74813;56.104;40.358;2024-03-17T06:00:22;75.32;;;10.30;;
43662;SDS011;74813;56.104;40.358;2024-03-17T06:02:54;78.93;;;10.50;;
43662;SDS011;74813;56.104;40.358;2024-03-17T06:05:27;88.35;;;11.90;;
43662;SDS011;74813;56.104;40.358;2024-03-17T06:08:03;71.28;;;10.88;;
43662;SDS011;74813;56.104;40.358;2024-03-17T06:10:37;68.32;;;10.88;;
43662;SDS011;74813;56.104;40.358;2024-03-17T06:13:10;63.72;;;10.13;;
43662;SDS011;74813;56.104;40.358;2024-03-17T06:15:43;68.72;;;9.13;;
43662;SDS011;74813;56.104;40.358;2024-03-17T06:18:16;90.82;;;9.45;;
43662;SDS011;74813;56.104;40.358;2024-03-17T06:20:48;64.88;;;8.73;;
43662;SDS011;74813;56.104;40.358;2024-03-17T06:23:20;80.32;;;11.30;;
43662;SDS011;74813;56.104;40.358;2024-03-17T06:25:53;69.57;;;11.18;;
43662;SDS011;74813;56.104;40.358;2024-03-17T06:28:25;55.75;;;10.02;;
43662;SDS011;74813;56.104;40.358;2024-03-17T06:30:58;73.72;;;10.52;;
43662;SDS011;74813;56.104;40.358;2024-03-17T06:33:31;61.78;;;11.25;;
43662;SDS011;74813;56.104;40.358;2024-03-17T06:36:03;70.03;;;10.90;;
43662;SDS011;74813;56.104;40.358;2024-03-17T06:38:36;66.63;;;11.20;;
43662;SDS011;74813;56.104;40.358;2024-03-17T06:41:12;78.32;;;10.57;;
43662;SDS011;74813;56.104;40.358;2024-03-17T06:43:44;74.68;;;11.68;;
43662;SDS011;74813;56.104;40.358;2024-03-17T06:46:16;74.93;;;10.30;;
43662;SDS011;74813;56.104;40.358;2024-03-17T06:48:49;61.60;;;11.00;;
43662;SDS011;74813;56.104;40.358;2024-03-17T06:51:21;71.57;;;11.68;;
43662;SDS011;74813;56.104;40.358;2024-03-17T06:53:53;91.47;;;18.27;;
43662;SDS011;74813;56.104;40.358;2024-03-17T06:56:25;76.35;;;15.55;;
43662;SDS011;74813;56.104;40.358;2024-03-17T06:58:58;48.58;;;9.60;;
43662;SDS011;74813;56.104;40.358;2024-03-17T07:01:30;55.97;;;9.30;;
43662;SDS011;74813;56.104;40.358;2024-03-17T07:04:02;69.35;;;9.18;;
43662;SDS011;74813;56.104;40.358;2024-03-17T07:06:35;59.63;;;9.57;;
43662;SDS011;74813;56.104;40.358;2024-03-17T07:09:07;41.40;;;7.13;;
43662;SDS011;74813;56.104;40.358;2024-03-17T07:11:39;61.70;;;8.60;;
43662;SDS011;74813;56.104;40.358;2024-03-17T07:14:12;47.00;;;8.98;;
43662;SDS011;74813;56.104;40.358;2024-03-17T07:16:44;42.13;;;7.65;;
43662;SDS011;74813;56.104;40.358;2024-03-17T07:19:16;58.85;;;9.65;;
43662;SDS011;74813;56.104;40.358;2024-03-17T07:21:49;64.53;;;9.95;;
43662;SDS011;74813;56.104;40.358;2024-03-17T07:24:21;52.92;;;8.30;;
43662;SDS011;74813;56.104;40.358;2024-03-17T07:26:53;49.67;;;9.05;;
43662;SDS011;74813;56.104;40.358;2024-03-17T07:29:25;45.05;;;7.70;;
43662;SDS011;74813;56.104;40.358;2024-03-17T07:31:58;52.00;;;8.45;;
43662;SDS011;74813;56.104;40.358;2024-03-17T07:34:31;49.10;;;8.48;;
43662;SDS011;74813;56.104;40.358;2024-03-17T07:37:03;51.22;;;7.68;;
43662;SDS011;74813;56.104;40.358;2024-03-17T07:39:36;48.10;;;9.15;;
43662;SDS011;74813;56.104;40.358;2024-03-17T07:42:08;42.75;;;7.55;;
43662;SDS011;74813;56.104;40.358;2024-03-17T07:44:43;53.22;;;7.72;;
43662;SDS011;74813;56.104;40.358;2024-03-17T07:47:15;35.65;;;7.15;;
43662;SDS011;74813;56.104;40.358;2024-03-17T07:49:48;38.58;;;6.50;;
43662;SDS011;74813;56.104;40.358;2024-03-17T07:52:20;40.70;;;7.70;;
43662;SDS011;74813;56.104;40.358;2024-03-17T07:54:52;53.53;;;6.35;;
43662;SDS011;74813;56.104;40.358;2024-03-17T07:57:25;47.20;;;7.63;;
43662;SDS011;74813;56.104;40.358;2024-03-17T07:59:57;52.95;;;7.43;;
43662;SDS011;74813;56.104;40.358;2024-03-17T08:02:29;38.00;;;6.47;;
43662;SDS011;74813;56.104;40.358;2024-03-17T08:05:01;42.58;;;6.22;;
43662;SDS011;74813;56.104;40.358;2024-03-17T08:07:35;46.67;;;7.22;;
43662;SDS011;74813;56.104;40.358;2024-03-17T08:10:07;48.63;;;7.85;;
43662;SDS011;74813;56.104;40.358;2024-03-17T08:12:40;42.97;;;7.47;;
43662;SDS011;74813;56.104;40.358;2024-03-17T08:15:12;38.60;;;6.07;;
43662;SDS011;74813;56.104;40.358;2024-03-17T08:17:45;41.75;;;6.72;;
43662;SDS011;74813;56.104;40.358;2024-03-17T08:20:17;41.65;;;6.95;;
43662;SDS011;74813;56.104;40.358;2024-03-17T08:22:49;42.83;;;6.57;;
43662;SDS011;74813;56.104;40.358;2024-03-17T08:25:21;41.75;;;7.90;;
43662;SDS011;74813;56.104;40.358;2024-03-17T08:27:54;52.50;;;6.80;;
43662;SDS011;74813;56.104;40.358;2024-03-17T08:30:26;41.38;;;6.70;;
43662;SDS011;74813;56.104;40.358;2024-03-17T08:32:59;50.95;;;9.18;;
43662;SDS011;74813;56.104;40.358;2024-03-17T08:35:31;49.42;;;9.43;;
43662;SDS011;74813;56.104;40.358;2024-03-17T08:38:03;48.47;;;6.75;;
43662;SDS011;74813;56.104;40.358;2024-03-17T08:40:36;51.78;;;7.00;;
43662;SDS011;74813;56.104;40.358;2024-03-17T08:43:08;44.35;;;5.75;;
43662;SDS011;74813;56.104;40.358;2024-03-17T08:45:41;47.65;;;6.35;;
43662;SDS011;74813;56.104;40.358;2024-03-17T08:48:13;36.75;;;5.60;;
43662;SDS011;74813;56.104;40.358;2024-03-17T08:50:54;59.80;;;6.40;;
43662;SDS011;74813;56.104;40.358;2024-03-17T08:53:27;57.03;;;9.82;;
43662;SDS011;74813;56.104;40.358;2024-03-17T08:56:00;47.63;;;6.60;;
43662;SDS011;74813;56.104;40.358;2024-03-17T08:58:34;39.30;;;6.20;;
43662;SDS011;74813;56.104;40.358;2024-03-17T09:01:07;34.88;;;5.63;;
43662;SDS011;74813;56.104;40.358;2024-03-17T09:03:39;44.42;;;7.40;;
43662;SDS011;74813;56.104;40.358;2024-03-17T09:06:15;48.55;;;6.22;;
43662;SDS011;74813;56.104;40.358;2024-03-17T09:08:48;43.33;;;6.30;;
43662;SDS011;74813;56.104;40.358;2024-03-17T09:11:21;59.50;;;8.13;;
43662;SDS011;74813;56.104;40.358;2024-03-17T09:13:53;45.50;;;5.80;;
43662;SDS011;74813;56.104;40.358;2024-03-17T09:16:25;45.83;;;6.78;;
43662;SDS011;74813;56.104;40.358;2024-03-17T09:18:57;56.88;;;14.20;;
43662;SDS011;74813;56.104;40.358;2024-03-17T09:21:30;48.17;;;8.85;;
43662;SDS011;74813;56.104;40.358;2024-03-17T09:24:02;37.90;;;6.43;;
43662;SDS011;74813;56.104;40.358;2024-03-17T09:26:35;41.25;;;5.60;;
43662;SDS011;74813;56.104;40.358;2024-03-17T09:29:07;50.97;;;7.97;;
43662;SDS011;74813;56.104;40.358;2024-03-17T09:31:39;39.05;;;5.22;;
43662;SDS011;74813;56.104;40.358;2024-03-17T09:34:12;48.60;;;5.18;;
43662;SDS011;74813;56.104;40.358;2024-03-17T09:36:44;43.97;;;5.28;;
43662;SDS011;74813;56.104;40.358;2024-03-17T09:39:16;36.60;;;5.32;;
43662;SDS011;74813;56.104;40.358;2024-03-17T09:41:49;44.70;;;6.50;;
43662;SDS011;74813;56.104;40.358;2024-03-17T09:44:21;40.75;;;6.00;;
43662;SDS011;74813;56.104;40.358;2024-03-17T09:46:54;50.30;;;7.00;;
43662;SDS011;74813;56.104;40.358;2024-03-17T09:49:26;35.70;;;5.63;;
43662;SDS011;74813;56.104;40.358;2024-03-17T09:51:59;32.53;;;5.18;;
43662;SDS011;74813;56.104;40.358;2024-03-17T09:54:31;36.25;;;5.47;;
43662;SDS011;74813;56.104;40.358;2024-03-17T09:57:07;37.83;;;5.20;;
43662;SDS011;74813;56.104;40.358;2024-03-17T09:59:50;34.10;;;5.50;;
43662;SDS011;74813;56.104;40.358;2024-03-17T10:02:23;38.00;;;6.57;;
43662;SDS011;74813;56.104;40.358;2024-03-17T10:04:55;40.92;;;9.32;;
43662;SDS011;74813;56.104;40.358;2024-03-17T10:07:37;31.40;;;5.55;;
43662;SDS011;74813;56.104;40.358;2024-03-17T10:10:10;29.90;;;4.85;;
43662;SDS011;74813;56.104;40.358;2024-03-17T10:12:44;33.13;;;5.72;;
43662;SDS011;74813;56.104;40.358;2024-03-17T10:15:21;33.55;;;5.40;;
43662;SDS011;74813;56.104;40.358;2024-03-17T10:17:53;36.75;;;8.85;;
43662;SDS011;74813;56.104;40.358;2024-03-17T10:20:26;31.83;;;4.63;;
43662;SDS011;74813;56.104;40.358;2024-03-17T10:25:40;31.40;;;3.85;;
43662;SDS011;74813;56.104;40.358;2024-03-17T10:28:13;30.75;;;4.20;;
43662;SDS011;74813;56.104;40.358;2024-03-17T10:30:56;35.08;;;4.25;;
43662;SDS011;74813;56.104;40.358;2024-03-17T10:33:30;37.88;;;6.85;;
43662;SDS011;74813;56.104;40.358;2024-03-17T10:36:02;39.38;;;6.97;;
43662;SDS011;74813;56.104;40.358;2024-03-17T10:38:35;37.20;;;7.18;;
43662;SDS011;74813;56.104;40.358;2024-03-17T10:41:07;42.80;;;7.22;;
43662;SDS011;74813;56.104;40.358;2024-03-17T10:43:41;31.90;;;3.53;;
43662;SDS011;74813;56.104;40.358;2024-03-17T10:46:14;34.85;;;4.85;;
43662;SDS011;74813;56.104;40.358;2024-03-17T10:48:47;36.20;;;5.38;;
43662;SDS011;74813;56.104;40.358;2024-03-17T10:51:21;30.70;;;4.53;;
43662;SDS011;74813;56.104;40.358;2024-03-17T10:53:54;38.90;;;4.97;;
43662;SDS011;74813;56.104;40.358;2024-03-17T10:56:28;34.22;;;5.65;;
43662;SDS011;74813;56.104;40.358;2024-03-17T10:59:01;36.40;;;6.13;;
43662;SDS011;74813;56.104;40.358;2024-03-17T11:01:35;37.67;;;5.15;;
43662;SDS011;74813;56.104;40.358;2024-03-17T11:04:08;30.10;;;4.18;;
43662;SDS011;74813;56.104;40.358;2024-03-17T11:06:45;30.63;;;4.18;;
43662;SDS011;74813;56.104;40.358;2024-03-17T11:09:18;28.85;;;4.47;;
43662;SDS011;74813;56.104;40.358;2024-03-17T11:11:51;33.00;;;4.28;;
43662;SDS011;74813;56.104;40.358;2024-03-17T11:14:23;27.13;;;4.63;;
43662;SDS011;74813;56.104;40.358;2024-03-17T11:16:55;27.83;;;5.53;;
43662;SDS011;74813;56.104;40.358;2024-03-17T11:19:28;29.60;;;4.20;;
43662;SDS011;74813;56.104;40.358;2024-03-17T11:22:38;36.17;;;4.60;;
43662;SDS011;74813;56.104;40.358;2024-03-17T11:28:02;25.48;;;4.25;;
43662;SDS011;74813;56.104;40.358;2024-03-17T11:38:55;33.28;;;4.45;;
43662;SDS011;74813;56.104;40.358;2024-03-17T11:41:38;32.45;;;5.40;;
43662;SDS011;74813;56.104;40.358;2024-03-17T11:46:51;30.48;;;4.82;;
43662;SDS011;74813;56.104;40.358;2024-03-17T11:49:36;22.33;;;4.18;;
43662;SDS011;74813;56.104;40.358;2024-03-17T11:52:10;31.55;;;4.80;;
43662;SDS011;74813;56.104;40.358;2024-03-17T11:54:44;34.20;;;5.70;;
43662;SDS011;74813;56.104;40.358;2024-03-17T11:57:22;33.45;;;4.68;;
43662;SDS011;74813;56.104;40.358;2024-03-17T11:59:55;34.65;;;5.20;;
43662;SDS011;74813;56.104;40.358;2024-03-17T12:02:31;36.22;;;4.32;;
43662;SDS011;74813;56.104;40.358;2024-03-17T12:05:04;34.38;;;4.30;;
43662;SDS011;74813;56.104;40.358;2024-03-17T12:07:41;36.25;;;4.55;;
43662;SDS011;74813;56.104;40.358;2024-03-17T12:10:14;36.70;;;4.43;;
43662;SDS011;74813;56.104;40.358;2024-03-17T12:12:47;32.78;;;4.53;;
43662;SDS011;74813;56.104;40.358;2024-03-17T12:15:20;30.10;;;4.28;;
43662;SDS011;74813;56.104;40.358;2024-03-17T12:17:52;26.02;;;5.88;;
43662;SDS011;74813;56.104;40.358;2024-03-17T12:20:25;30.65;;;4.63;;
43662;SDS011;74813;56.104;40.358;2024-03-17T12:22:57;30.05;;;4.32;;
43662;SDS011;74813;56.104;40.358;2024-03-17T12:25:30;27.70;;;4.65;;
43662;SDS011;74813;56.104;40.358;2024-03-17T12:28:02;24.88;;;4.10;;
43662;SDS011;74813;56.104;40.358;2024-03-17T12:30:35;29.63;;;4.13;;
43662;SDS011;74813;56.104;40.358;2024-03-17T12:33:08;37.70;;;5.82;;
43662;SDS011;74813;56.104;40.358;2024-03-17T12:35:43;38.83;;;10.75;;
43662;SDS011;74813;56.104;40.358;2024-03-17T12:38:19;32.08;;;9.05;;
43662;SDS011;74813;56.104;40.358;2024-03-17T12:40:53;36.38;;;4.63;;
43662;SDS011;74813;56.104;40.358;2024-03-17T12:43:25;26.45;;;4.13;;
43662;SDS011;74813;56.104;40.358;2024-03-17T12:45:57;30.25;;;6.65;;
43662;SDS011;74813;56.104;40.358;2024-03-17T12:48:29;44.35;;;20.52;;
43662;SDS011;74813;56.104;40.358;2024-03-17T12:51:02;31.38;;;4.72;;
43662;SDS011;74813;56.104;40.358;2024-03-17T12:53:35;31.65;;;4.57;;
43662;SDS011;74813;56.104;40.358;2024-03-17T12:56:07;30.45;;;4.40;;
43662;SDS011;74813;56.104;40.358;2024-03-17T12:58:39;26.85;;;4.53;;
43662;SDS011;74813;56.104;40.358;2024-03-17T13:01:13;23.98;;;4.50;;
43662;SDS011;74813;56.104;40.358;2024-03-17T13:03:45;32.42;;;5.60;;
43662;SDS011;74813;56.104;40.358;2024-03-17T13:06:22;29.35;;;4.30;;
43662;SDS011;74813;56.104;40.358;2024-03-17T13:08:55;36.47;;;5.88;;
43662;SDS011;74813;56.104;40.358;2024-03-17T13:11:28;33.22;;;4.43;;
43662;SDS011;74813;56.104;40.358;2024-03-17T13:14:00;29.90;;;3.92;;
43662;SDS011;74813;56.104;40.358;2024-03-17T13:16:32;27.80;;;4.30;;
43662;SDS011;74813;56.104;40.358;2024-03-17T13:19:05;28.98;;;4.10;;
43662;SDS011;74813;56.104;40.358;2024-03-17T13:21:37;33.20;;;4.47;;
43662;SDS011;74813;56.104;40.358;2024-03-17T13:24:09;28.50;;;4.13;;
43662;SDS011;74813;56.104;40.358;2024-03-17T13:26:41;34.15;;;5.95;;
43662;SDS011;74813;56.104;40.358;2024-03-17T13:29:14;39.58;;;4.82;;
43662;SDS011;74813;56.104;40.358;2024-03-17T13:31:46;41.55;;;4.63;;
43662;SDS011;74813;56.104;40.358;2024-03-17T13:34:18;34.25;;;4.65;;
43662;SDS011;74813;56.104;40.358;2024-03-17T13:36:54;34.15;;;4.72;;
43662;SDS011;74813;56.104;40.358;2024-03-17T13:39:32;30.30;;;4.97;;
43662;SDS011;74813;56.104;40.358;2024-03-17T13:42:05;29.42;;;4.60;;
43662;SDS011;74813;56.104;40.358;2024-03-17T13:44:37;30.80;;;4.07;;
43662;SDS011;74813;56.104;40.358;2024-03-17T13:47:09;34.88;;;6.95;;
43662;SDS011;74813;56.104;40.358;2024-03-17T13:49:42;36.63;;;5.50;;
43662;SDS011;74813;56.104;40.358;2024-03-17T13:52:14;37.60;;;6.00;;
43662;SDS011;74813;56.104;40.358;2024-03-17T13:54:46;37.92;;;5.30;;
43662;SDS011;74813;56.104;40.358;2024-03-17T13:57:19;30.52;;;3.92;;
43662;SDS011;74813;56.104;40.358;2024-03-17T13:59:51;42.45;;;9.88;;
43662;SDS011;74813;56.104;40.358;2024-03-17T14:02:23;35.45;;;4.70;;
43662;SDS011;74813;56.104;40.358;2024-03-17T14:04:56;33.90;;;4.65;;
43662;SDS011;74813;56.104;40.358;2024-03-17T14:07:28;31.60;;;4.85;;
43662;SDS011;74813;56.104;40.358;2024-03-17T14:10:00;40.72;;;8.82;;
43662;SDS011;74813;56.104;40.358;2024-03-17T14:12:32;38.50;;;7.18;;
43662;SDS011;74813;56.104;40.358;2024-03-17T14:15:05;40.95;;;9.45;;
43662;SDS011;74813;56.104;40.358;2024-03-17T14:17:39;47.67;;;15.63;;
43662;SDS011;74813;56.104;40.358;2024-03-17T14:20:13;41.33;;;9.90;;
43662;SDS011;74813;56.104;40.358;2024-03-17T14:22:46;39.45;;;5.75;;
43662;SDS011;74813;56.104;40.358;2024-03-17T14:25:19;50.15;;;11.38;;
43662;SDS011;74813;56.104;40.358;2024-03-17T14:27:51;35.08;;;5.25;;
43662;SDS011;74813;56.104;40.358;2024-03-17T14:30:24;40.72;;;6.85;;
43662;SDS011;74813;56.104;40.358;2024-03-17T14:32:56;35.10;;;4.68;;
43662;SDS011;74813;56.104;40.358;2024-03-17T14:35:28;42.90;;;5.60;;
43662;SDS011;74813;56.104;40.358;2024-03-17T14:38:01;35.83;;;5.32;;
43662;SDS011;74813;56.104;40.358;2024-03-17T14:40:33;29.75;;;5.20;;
43662;SDS011;74813;56.104;40.358;2024-03-17T14:43:05;46.83;;;5.40;;
43662;SDS011;74813;56.104;40.358;2024-03-17T14:45:38;34.80;;;5.28;;
43662;SDS011;74813;56.104;40.358;2024-03-17T14:48:10;41.33;;;5.85;;
43662;SDS011;74813;56.104;40.358;2024-03-17T14:50:42;44.88;;;5.65;;
43662;SDS011;74813;56.104;40.358;2024-03-17T14:53:14;46.95;;;5.55;;
43662;SDS011;74813;56.104;40.358;2024-03-17T14:55:47;45.20;;;6.10;;
43662;SDS011;74813;56.104;40.358;2024-03-17T14:58:19;37.28;;;5.50;;
43662;SDS011;74813;56.104;40.358;2024-03-17T15:00:51;36.15;;;5.13;;
43662;SDS011;74813;56.104;40.358;2024-03-17T15:03:24;48.88;;;4.78;;
43662;SDS011;74813;56.104;40.358;2024-03-17T15:05:56;46.10;;;5.45;;
43662;SDS011;74813;56.104;40.358;2024-03-17T15:08:28;33.28;;;4.72;;
43662;SDS011;74813;56.104;40.358;2024-03-17T15:11:01;44.15;;;6.65;;